Time;durP1;ratioP1;P1;durP2;ratioP2;P2;SDS_P1;SDS_P2;PMS_P1;PMS_P2;Temp;Humidity;BMP_temperature;BMP_pressure;BME280_temperature;BME280_humidity;BME280_pressure;Samples;Min_cycle;Max_cycle;Signal;HPM_P1;HPM_P2
2021/10/02 00:36:24;;;;;;;3.30;1.27;;;11.80;85.70;;;;;;4986943;28;20142;-73
2021/10/02 00:47:02;;;;;;;7.38;1.45;;;11.90;85.00;;;;;;5004259;28;20516;-71
2021/10/02 00:49:28;;;;;;;7.25;1.52;;;11.90;84.80;;;;;;5007541;28;20090;-69
2021/10/02 00:51:53;;;;;;;3.33;1.45;;;12.00;85.20;;;;;;5005094;28;20150;-71
2021/10/02 00:54:19;;;;;;;4.80;1.50;;;12.00;85.20;;;;;;4998281;28;20033;-71
2021/10/02 00:56:45;;;;;;;2.45;1.27;;;12.00;85.00;;;;;;5013714;28;20034;-73
2021/10/02 00:59:11;;;;;;;4.05;1.33;;;12.10;85.00;;;;;;4998886;28;20060;-72
2021/10/02 01:01:58;;;;;;;2.30;1.30;;;12.10;85.00;;;;;;5002721;28;20109;-70
2021/10/02 01:04:41;;;;;;;3.33;1.33;;;12.10;85.20;;;;;;4998696;28;20026;-70
2021/10/02 01:07:28;;;;;;;4.45;1.50;;;12.10;85.60;;;;;;5003356;28;20025;-70
2021/10/02 01:10:27;;;;;;;3.13;1.27;;;12.10;85.60;;;;;;4994053;28;20034;-71
2021/10/02 01:13:19;;;;;;;4.20;1.40;;;12.20;85.80;;;;;;5013849;28;20041;-70
2021/10/02 01:15:59;;;;;;;3.28;1.50;;;12.20;85.90;;;;;;5001484;28;20034;-70
2021/10/02 01:18:52;;;;;;;3.38;1.40;;;12.30;85.90;;;;;;5000426;28;20038;-71
2021/10/02 01:21:52;;;;;;;8.05;1.63;;;12.20;85.80;;;;;;5001393;28;20512;-73
2021/10/02 01:24:27;;;;;;;2.90;1.30;;;12.30;86.00;;;;;;4996096;28;20080;-69
2021/10/02 01:27:08;;;;;;;5.80;1.60;;;12.30;86.20;;;;;;5000653;28;20105;-70
2021/10/02 01:29:37;;;;;;;2.88;1.30;;;12.30;86.10;;;;;;5014059;28;20096;-72
2021/10/02 01:32:14;;;;;;;4.28;1.67;;;12.30;86.10;;;;;;4996959;28;20034;-72
2021/10/02 01:38:01;;;;;;;6.38;1.85;;;12.30;86.70;;;;;;4997957;28;20050;-70
2021/10/02 01:48:29;;;;;;;4.43;1.67;;;12.30;86.90;;;;;;4999995;28;20076;-67
2021/10/02 01:50:56;;;;;;;4.40;1.50;;;12.30;87.00;;;;;;5004443;28;20041;-66
2021/10/02 01:53:26;;;;;;;6.80;1.50;;;12.40;86.70;;;;;;5007168;28;20441;-66
2021/10/02 01:55:55;;;;;;;3.95;1.60;;;12.40;86.80;;;;;;4995117;28;20029;-67
2021/10/02 01:58:23;;;;;;;5.25;1.58;;;12.40;87.40;;;;;;5005623;28;20025;-67
2021/10/02 02:00:49;;;;;;;4.00;1.80;;;12.30;87.30;;;;;;5003796;28;20021;-67
2021/10/02 02:03:18;;;;;;;3.65;1.45;;;12.30;87.70;;;;;;5001416;28;20030;-67
2021/10/02 02:05:46;;;;;;;6.28;1.95;;;12.40;87.90;;;;;;5006823;28;20273;-67
2021/10/02 02:08:15;;;;;;;3.72;1.85;;;12.30;87.80;;;;;;5006295;28;20030;-67
2021/10/02 02:10:43;;;;;;;4.53;1.70;;;12.30;87.90;;;;;;5005021;28;20030;-66
2021/10/02 02:13:12;;;;;;;4.47;1.88;;;12.30;88.00;;;;;;5000267;28;20385;-65
2021/10/02 02:15:39;;;;;;;4.53;1.83;;;12.30;88.20;;;;;;5005440;28;20022;-67
2021/10/02 02:18:14;;;;;;;5.07;1.92;;;12.30;88.40;;;;;;5006536;28;20562;-66
2021/10/02 02:20:42;;;;;;;5.50;1.83;;;12.30;88.30;;;;;;5001036;28;20040;-67
2021/10/02 02:23:12;;;;;;;5.95;2.05;;;12.20;88.70;;;;;;4997492;28;20076;-66
2021/10/02 02:25:39;;;;;;;5.80;1.95;;;12.30;88.60;;;;;;5004858;28;20113;-66
2021/10/02 02:28:06;;;;;;;3.85;2.03;;;12.30;88.30;;;;;;5000207;28;20026;-67
2021/10/02 02:30:33;;;;;;;2.85;1.70;;;12.30;88.00;;;;;;5014587;28;20084;-66
2021/10/02 02:33:00;;;;;;;3.80;1.80;;;12.30;88.20;;;;;;5000328;28;20299;-67
2021/10/02 02:35:26;;;;;;;5.80;2.17;;;12.30;88.40;;;;;;5002482;28;20029;-65
2021/10/02 02:37:52;;;;;;;4.38;1.98;;;12.30;88.30;;;;;;4998161;28;20393;-67
2021/10/02 02:40:18;;;;;;;5.35;2.00;;;12.30;88.30;;;;;;5003667;28;20041;-67
2021/10/02 02:42:44;;;;;;;6.20;2.00;;;12.30;88.30;;;;;;5000949;28;20428;-67
2021/10/02 02:45:12;;;;;;;7.80;2.08;;;12.40;88.50;;;;;;5010005;28;20627;-67
2021/10/02 02:47:55;;;;;;;4.95;2.08;;;12.30;88.20;;;;;;5004135;28;20168;-67
2021/10/02 02:50:52;;;;;;;3.00;1.88;;;12.30;88.20;;;;;;5012838;28;20025;-66
2021/10/02 02:53:36;;;;;;;5.57;2.08;;;12.30;88.30;;;;;;4999808;28;20034;-67
2021/10/02 02:56:27;;;;;;;6.68;2.20;;;12.30;88.30;;;;;;5013581;28;20492;-66
2021/10/02 02:58:57;;;;;;;4.65;2.30;;;12.30;88.40;;;;;;5000000;28;20048;-67
2021/10/02 03:01:25;;;;;;;5.13;1.90;;;12.30;88.30;;;;;;4999909;28;20477;-67
2021/10/02 03:03:52;;;;;;;3.78;1.83;;;12.30;88.30;;;;;;5010895;28;20400;-67
2021/10/02 03:06:20;;;;;;;7.78;1.98;;;12.30;88.10;;;;;;5002785;28;20481;-65
2021/10/02 03:08:51;;;;;;;4.93;1.95;;;12.30;88.10;;;;;;4998119;28;20026;-64
2021/10/02 03:11:19;;;;;;;5.33;2.20;;;12.30;88.10;;;;;;5008625;28;20029;-65
2021/10/02 03:13:50;;;;;;;3.35;1.67;;;12.40;88.10;;;;;;5008264;28;20393;-66
2021/10/02 03:16:17;;;;;;;4.18;2.00;;;12.40;88.00;;;;;;5001705;28;20113;-67
2021/10/02 03:18:46;;;;;;;4.20;2.03;;;12.40;88.10;;;;;;5002570;28;20070;-67
2021/10/02 03:21:14;;;;;;;5.63;2.55;;;12.40;88.30;;;;;;4997894;28;20480;-67
2021/10/02 03:23:43;;;;;;;5.47;2.25;;;12.40;88.10;;;;;;5001830;28;20042;-67
2021/10/02 03:26:09;;;;;;;5.85;2.20;;;12.50;88.20;;;;;;5001634;28;20030;-66
2021/10/02 03:28:36;;;;;;;4.53;2.25;;;12.40;88.40;;;;;;5007756;28;20085;-66
2021/10/02 03:31:02;;;;;;;5.13;2.80;;;12.40;88.60;;;;;;5014121;28;20084;-65
2021/10/02 03:33:29;;;;;;;7.90;2.22;;;12.40;88.40;;;;;;4997103;28;20433;-67
2021/10/02 03:35:55;;;;;;;9.45;2.78;;;12.40;88.60;;;;;;4996932;28;20028;-66
2021/10/02 03:38:23;;;;;;;9.35;2.47;;;12.40;88.60;;;;;;4999212;28;20030;-66
2021/10/02 03:40:49;;;;;;;6.95;2.25;;;12.50;88.70;;;;;;5003902;28;20061;-66
2021/10/02 03:43:16;;;;;;;6.55;2.55;;;12.40;88.60;;;;;;5002028;28;20030;-67
2021/10/02 03:45:41;;;;;;;6.00;2.60;;;12.40;88.90;;;;;;5002137;28;20022;-67
2021/10/02 03:48:07;;;;;;;5.22;2.50;;;12.40;88.90;;;;;;4996246;28;20030;-65
2021/10/02 03:50:34;;;;;;;4.03;2.38;;;12.40;88.90;;;;;;5005466;28;20331;-67
2021/10/02 03:52:59;;;;;;;5.72;2.63;;;12.40;89.10;;;;;;4997320;28;20441;-65
2021/10/02 03:55:25;;;;;;;4.63;2.65;;;12.40;89.40;;;;;;4997555;28;20333;-67
2021/10/02 03:57:51;;;;;;;6.03;2.63;;;12.40;89.90;;;;;;5009428;28;20046;-67
2021/10/02 04:00:17;;;;;;;6.13;2.40;;;12.40;90.10;;;;;;5001450;28;20100;-67
2021/10/02 04:02:43;;;;;;;6.22;2.88;;;12.40;90.30;;;;;;4999419;28;20037;-66
2021/10/02 04:05:10;;;;;;;6.22;2.90;;;12.40;90.60;;;;;;4998755;28;20034;-67
2021/10/02 04:07:36;;;;;;;6.75;3.50;;;12.30;90.80;;;;;;4998321;28;20069;-67
2021/10/02 04:10:04;;;;;;;9.75;3.67;;;12.30;90.80;;;;;;4996496;28;20061;-67
2021/10/02 04:12:30;;;;;;;6.28;3.00;;;12.40;90.90;;;;;;5003342;28;20037;-67
2021/10/02 04:14:56;;;;;;;5.53;3.15;;;12.30;91.10;;;;;;4998717;28;20025;-67
2021/10/02 04:17:21;;;;;;;6.35;3.17;;;12.30;91.10;;;;;;5002862;28;20050;-67
2021/10/02 04:19:47;;;;;;;8.20;3.13;;;12.30;91.30;;;;;;5004373;28;20076;-65
2021/10/02 04:22:13;;;;;;;7.63;3.45;;;12.30;91.20;;;;;;5004898;28;20026;-66
2021/10/02 04:24:40;;;;;;;8.25;3.60;;;12.30;91.30;;;;;;5000025;28;20030;-66
2021/10/02 04:27:06;;;;;;;6.20;3.38;;;12.30;91.30;;;;;;5006446;28;20643;-65
2021/10/02 04:29:32;;;;;;;9.48;3.80;;;12.30;91.40;;;;;;5009005;28;20128;-65
2021/10/02 04:31:57;;;;;;;12.15;4.10;;;12.30;91.40;;;;;;5005614;28;20468;-65
2021/10/02 04:34:23;;;;;;;10.15;3.95;;;12.40;91.50;;;;;;5003309;28;20038;-66
2021/10/02 04:36:49;;;;;;;7.38;3.50;;;12.40;91.70;;;;;;5005946;28;20123;-65
2021/10/02 04:39:14;;;;;;;7.97;3.72;;;12.40;91.70;;;;;;4996618;28;20396;-65
2021/10/02 04:41:40;;;;;;;6.82;3.60;;;12.40;91.80;;;;;;5006414;28;20026;-66
2021/10/02 04:44:06;;;;;;;9.93;4.13;;;12.40;91.80;;;;;;5001560;28;20469;-65
2021/10/02 04:46:32;;;;;;;8.82;4.18;;;12.40;91.90;;;;;;5004079;28;20485;-65
2021/10/02 04:48:58;;;;;;;7.43;3.90;;;12.40;91.90;;;;;;5001445;28;20473;-64
2021/10/02 04:51:23;;;;;;;9.60;4.15;;;12.40;92.00;;;;;;4999889;28;20025;-65
2021/10/02 04:53:49;;;;;;;10.15;4.35;;;12.40;92.00;;;;;;5001134;28;20038;-65
2021/10/02 04:56:17;;;;;;;8.75;4.22;;;12.40;92.20;;;;;;5015357;28;20056;-63
2021/10/02 04:58:43;;;;;;;9.75;3.97;;;12.40;92.10;;;;;;4995557;28;20034;-65
2021/10/02 05:01:09;;;;;;;9.63;4.00;;;12.40;92.20;;;;;;5002386;28;20433;-65
2021/10/02 05:03:37;;;;;;;8.27;4.38;;;12.40;92.40;;;;;;5002994;28;20057;-65
2021/10/02 05:06:04;;;;;;;7.93;3.75;;;12.30;92.40;;;;;;5010663;28;20066;-64
2021/10/02 05:08:30;;;;;;;7.65;4.40;;;12.40;92.40;;;;;;4998891;28;20049;-65
2021/10/02 05:10:56;;;;;;;9.75;4.25;;;12.30;92.50;;;;;;4998880;28;20044;-66
2021/10/02 05:13:22;;;;;;;6.95;3.90;;;12.30;92.50;;;;;;5002366;28;20125;-66
2021/10/02 05:15:48;;;;;;;8.23;4.15;;;12.30;92.70;;;;;;5001586;28;20102;-66
2021/10/02 05:18:13;;;;;;;8.50;4.68;;;12.30;92.70;;;;;;5002618;28;20033;-64
2021/10/02 05:20:39;;;;;;;7.95;4.35;;;12.30;92.70;;;;;;5000698;28;20084;-63
2021/10/02 05:23:05;;;;;;;11.50;4.88;;;12.40;92.70;;;;;;5003588;28;20624;-65
2021/10/02 05:25:30;;;;;;;8.13;4.20;;;12.40;92.70;;;;;;5007293;28;20541;-64
2021/10/02 05:27:57;;;;;;;9.02;4.95;;;12.40;92.80;;;;;;5001100;28;20500;-62
2021/10/02 05:30:22;;;;;;;12.75;5.03;;;12.40;92.90;;;;;;4996125;28;20107;-61
2021/10/02 05:32:48;;;;;;;10.68;4.95;;;12.40;92.90;;;;;;5000426;28;20076;-63
2021/10/02 05:35:14;;;;;;;12.85;5.50;;;12.40;92.90;;;;;;5008640;28;20500;-63
2021/10/02 05:37:39;;;;;;;13.25;5.20;;;12.40;92.90;;;;;;4996824;28;20150;-61
2021/10/02 05:40:06;;;;;;;8.20;5.03;;;12.40;92.90;;;;;;5005164;28;20076;-61
2021/10/02 05:42:31;;;;;;;9.77;5.10;;;12.40;93.10;;;;;;5009166;28;20041;-62
2021/10/02 05:44:57;;;;;;;10.52;5.47;;;12.40;93.20;;;;;;5002866;28;20073;-62
2021/10/02 05:47:23;;;;;;;11.00;5.00;;;12.40;93.10;;;;;;5002863;28;20113;-62
2021/10/02 05:49:48;;;;;;;9.50;4.82;;;12.40;93.10;;;;;;5000326;28;20204;-62
2021/10/02 05:52:14;;;;;;;10.40;5.47;;;12.40;93.10;;;;;;5007252;28;20105;-62
2021/10/02 05:54:40;;;;;;;12.40;6.20;;;12.50;93.10;;;;;;5003359;28;20236;-62
2021/10/02 05:57:06;;;;;;;9.27;5.13;;;12.40;93.10;;;;;;4993927;28;20049;-63
2021/10/02 05:59:32;;;;;;;7.78;4.72;;;12.40;93.00;;;;;;4999619;28;20096;-62
2021/10/02 06:01:57;;;;;;;10.98;4.88;;;12.40;93.00;;;;;;5000528;28;20034;-63
2021/10/02 06:04:23;;;;;;;12.95;5.03;;;12.40;93.00;;;;;;5007258;28;20038;-63
2021/10/02 06:06:49;;;;;;;10.15;4.80;;;12.40;93.00;;;;;;5006819;28;20031;-63
2021/10/02 06:09:14;;;;;;;10.50;5.38;;;12.50;92.90;;;;;;4999700;28;20033;-63
2021/10/02 06:11:40;;;;;;;12.90;4.95;;;12.40;92.90;;;;;;4998365;28;20477;-61
2021/10/02 06:14:05;;;;;;;11.65;5.07;;;12.40;93.10;;;;;;4996290;28;20065;-60
2021/10/02 06:16:32;;;;;;;9.32;4.60;;;12.40;93.00;;;;;;5009393;28;20073;-61
2021/10/02 06:18:58;;;;;;;8.85;4.90;;;12.50;93.00;;;;;;5000684;28;20265;-61
2021/10/02 06:21:24;;;;;;;9.98;5.28;;;12.40;92.90;;;;;;4995962;28;20287;-63
2021/10/02 06:23:49;;;;;;;9.40;5.35;;;12.50;92.90;;;;;;5010725;28;20392;-63
2021/10/02 06:26:15;;;;;;;9.10;5.00;;;12.40;93.10;;;;;;5007373;28;20025;-63
2021/10/02 06:28:41;;;;;;;9.25;5.25;;;12.40;93.30;;;;;;4995282;28;20132;-62
2021/10/02 06:31:06;;;;;;;9.35;5.18;;;12.50;93.30;;;;;;5005710;28;20060;-64
2021/10/02 06:33:33;;;;;;;10.10;5.15;;;12.50;93.20;;;;;;5002776;28;20033;-62
2021/10/02 06:35:58;;;;;;;10.10;5.47;;;12.50;93.30;;;;;;5002294;28;20022;-62
2021/10/02 06:38:24;;;;;;;11.13;5.80;;;12.40;93.30;;;;;;4997915;28;20483;-63
2021/10/02 06:40:50;;;;;;;12.05;5.85;;;12.50;93.50;;;;;;5006854;28;20026;-63
2021/10/02 06:43:15;;;;;;;11.93;6.00;;;12.50;93.50;;;;;;5002798;28;20041;-62
2021/10/02 06:45:42;;;;;;;11.75;6.35;;;12.50;93.60;;;;;;5001027;28;20065;-63
2021/10/02 06:48:07;;;;;;;12.93;5.97;;;12.50;93.90;;;;;;5001155;28;20055;-64
2021/10/02 06:50:34;;;;;;;12.02;6.22;;;12.50;94.00;;;;;;5005823;28;20019;-62
2021/10/02 06:53:01;;;;;;;13.13;6.57;;;12.50;93.90;;;;;;4998702;28;20125;-63
2021/10/02 06:55:26;;;;;;;11.80;6.40;;;12.50;93.90;;;;;;5005565;28;20165;-60
2021/10/02 06:57:52;;;;;;;14.40;7.10;;;12.50;94.00;;;;;;4999733;28;20491;-63
2021/10/02 07:00:17;;;;;;;12.10;6.93;;;12.50;94.10;;;;;;4999308;28;20023;-62
2021/10/02 07:02:44;;;;;;;13.27;6.30;;;12.50;94.10;;;;;;5000794;28;20088;-62
2021/10/02 07:05:12;;;;;;;15.00;6.63;;;12.50;94.10;;;;;;5003825;28;20165;-64
2021/10/02 07:07:40;;;;;;;9.88;6.40;;;12.60;94.30;;;;;;5002519;28;20038;-63
2021/10/02 07:10:07;;;;;;;12.10;6.32;;;12.60;94.20;;;;;;4996576;28;20448;-62
2021/10/02 07:12:33;;;;;;;12.50;6.18;;;12.60;94.30;;;;;;5002160;28;20084;-63
2021/10/02 07:14:59;;;;;;;10.85;6.93;;;12.70;94.20;;;;;;5002702;28;20038;-63
2021/10/02 07:17:24;;;;;;;12.00;7.13;;;12.60;94.20;;;;;;5000035;28;20029;-63
2021/10/02 07:19:50;;;;;;;11.93;6.57;;;12.60;94.40;;;;;;4997655;28;20246;-61
2021/10/02 07:22:17;;;;;;;13.65;7.47;;;12.70;94.40;;;;;;4998404;28;20119;-63
2021/10/02 07:24:42;;;;;;;14.75;7.47;;;12.70;94.40;;;;;;4996500;28;20033;-63
2021/10/02 07:27:08;;;;;;;14.88;7.20;;;12.70;94.40;;;;;;5002619;28;20022;-64
2021/10/02 07:29:33;;;;;;;10.98;6.93;;;12.60;94.50;;;;;;4999949;28;20076;-63
2021/10/02 07:31:59;;;;;;;11.48;7.40;;;12.70;94.50;;;;;;5002800;28;20034;-62
2021/10/02 07:34:25;;;;;;;12.10;7.10;;;12.70;94.70;;;;;;5003168;28;20634;-62
2021/10/02 07:36:51;;;;;;;11.25;6.70;;;12.70;94.60;;;;;;5003349;28;20030;-64
2021/10/02 07:39:17;;;;;;;12.85;7.25;;;12.70;94.60;;;;;;5003290;28;20480;-63
2021/10/02 07:41:47;;;;;;;14.35;7.38;;;12.80;94.60;;;;;;5011104;28;20030;-63
2021/10/02 07:44:13;;;;;;;13.82;7.53;;;12.80;94.40;;;;;;5001452;28;20470;-61
2021/10/02 07:46:50;;;;;;;11.05;6.45;;;12.90;94.40;;;;;;5002375;28;20108;-62
2021/10/02 07:49:18;;;;;;;12.90;6.85;;;12.90;93.90;;;;;;4990789;28;20026;-63
2021/10/02 07:51:45;;;;;;;12.93;7.80;;;12.90;93.90;;;;;;5005064;28;20412;-64
2021/10/02 07:54:11;;;;;;;9.77;6.18;;;12.90;93.90;;;;;;5012740;28;20435;-61
2021/10/02 07:56:38;;;;;;;10.90;7.00;;;13.00;94.10;;;;;;5004165;28;20038;-61
2021/10/02 07:59:07;;;;;;;14.50;6.70;;;13.00;94.10;;;;;;4996080;28;20560;-62
2021/10/02 08:01:36;;;;;;;10.05;6.53;;;13.10;93.90;;;;;;5003690;28;20084;-62
2021/10/02 08:04:08;;;;;;;10.43;6.90;;;13.10;93.60;;;;;;5005077;28;20029;-62
2021/10/02 08:06:35;;;;;;;12.88;6.35;;;13.10;93.70;;;;;;5001368;28;20037;-63
2021/10/02 08:09:01;;;;;;;12.23;6.25;;;13.10;93.70;;;;;;5006465;28;20059;-63
2021/10/02 08:11:28;;;;;;;14.25;6.90;;;13.10;93.60;;;;;;5004913;28;20041;-63
2021/10/02 08:13:54;;;;;;;11.50;6.85;;;13.10;93.70;;;;;;5004777;28;20161;-63
2021/10/02 08:16:21;;;;;;;16.17;6.88;;;13.10;93.80;;;;;;5009173;28;20176;-65
2021/10/02 08:18:49;;;;;;;12.27;6.75;;;13.20;93.60;;;;;;5005704;28;20049;-63
2021/10/02 08:21:15;;;;;;;10.90;6.47;;;13.20;93.50;;;;;;4997777;28;20034;-61
2021/10/02 08:23:42;;;;;;;14.13;6.80;;;13.20;93.50;;;;;;5005462;28;20034;-61
2021/10/02 08:26:14;;;;;;;13.10;7.40;;;13.30;93.40;;;;;;5006555;28;20068;-63
2021/10/02 08:28:44;;;;;;;13.88;7.32;;;13.30;93.60;;;;;;4999130;28;20089;-62
2021/10/02 08:31:10;;;;;;;11.77;6.75;;;13.20;93.40;;;;;;5008503;28;20022;-62
2021/10/02 08:33:36;;;;;;;11.80;7.03;;;13.30;93.30;;;;;;4996476;28;20049;-62
2021/10/02 08:36:02;;;;;;;11.27;6.55;;;13.30;93.30;;;;;;5000042;28;20049;-63
2021/10/02 08:38:28;;;;;;;10.85;7.18;;;13.40;93.40;;;;;;5001960;28;20026;-61
2021/10/02 08:40:55;;;;;;;13.38;7.28;;;13.50;92.90;;;;;;5010359;28;20599;-63
2021/10/02 08:43:22;;;;;;;14.20;6.88;;;13.60;92.50;;;;;;5004467;28;20025;-64
2021/10/02 08:45:48;;;;;;;14.18;7.07;;;13.80;92.40;;;;;;5018609;28;20034;-63
2021/10/02 08:48:16;;;;;;;12.00;7.10;;;14.00;91.80;;;;;;5000642;28;20030;-63
2021/10/02 08:50:44;;;;;;;11.05;6.53;;;14.10;91.50;;;;;;4995083;28;20122;-64
2021/10/02 08:53:12;;;;;;;13.27;6.80;;;14.60;91.20;;;;;;5002530;28;20030;-64
2021/10/02 08:55:38;;;;;;;11.38;6.32;;;14.60;89.10;;;;;;5002201;28;20038;-62
2021/10/02 08:58:04;;;;;;;11.45;5.75;;;14.90;88.80;;;;;;5006596;28;20030;-63
2021/10/02 09:00:31;;;;;;;12.77;5.82;;;15.00;88.70;;;;;;5004455;28;20088;-64
2021/10/02 09:02:57;;;;;;;10.65;5.93;;;15.00;88.10;;;;;;5003731;28;20508;-63
2021/10/02 09:05:24;;;;;;;12.95;5.90;;;14.80;88.20;;;;;;5011419;28;20527;-63
2021/10/02 09:07:56;;;;;;;9.65;5.15;;;14.90;88.50;;;;;;5003556;28;20014;-62
2021/10/02 09:10:23;;;;;;;8.65;4.93;;;14.90;88.30;;;;;;5000229;28;20511;-62
2021/10/02 09:12:49;;;;;;;7.43;4.78;;;15.00;87.80;;;;;;5004341;28;20033;-62
2021/10/02 09:15:17;;;;;;;9.05;4.72;;;15.30;87.80;;;;;;5005217;28;20041;-63
2021/10/02 09:17:45;;;;;;;9.32;4.13;;;15.30;86.30;;;;;;5004461;28;20378;-62
2021/10/02 09:20:13;;;;;;;7.25;4.15;;;15.60;85.60;;;;;;5012382;28;20021;-63
2021/10/02 09:22:39;;;;;;;7.57;4.05;;;15.70;84.90;;;;;;5000403;28;20029;-62
2021/10/02 09:25:09;;;;;;;8.48;4.32;;;15.80;84.70;;;;;;5004934;28;20038;-62
2021/10/02 09:27:36;;;;;;;7.70;3.92;;;15.80;84.00;;;;;;5004415;28;20022;-64
2021/10/02 09:30:11;;;;;;;6.60;3.47;;;15.80;84.50;;;;;;5002807;28;20036;-63
2021/10/02 09:32:46;;;;;;;8.27;3.42;;;15.80;84.70;;;;;;5003067;28;20048;-64
2021/10/02 09:35:18;;;;;;;7.32;3.60;;;15.70;84.90;;;;;;5001804;28;20026;-63
2021/10/02 09:37:51;;;;;;;7.97;3.53;;;15.70;83.60;;;;;;5006276;28;20079;-62
2021/10/02 09:40:20;;;;;;;6.20;3.25;;;15.70;84.00;;;;;;5007044;28;20028;-63
2021/10/02 09:42:58;;;;;;;6.88;3.28;;;16.10;84.00;;;;;;5006746;28;20057;-63
2021/10/02 09:45:40;;;;;;;11.02;3.03;;;15.80;82.50;;;;;;4991510;28;20041;-63
2021/10/02 09:48:09;;;;;;;7.22;3.33;;;15.90;83.60;;;;;;5006768;28;20034;-63
2021/10/02 09:50:37;;;;;;;6.35;2.95;;;15.90;83.60;;;;;;5011817;28;20512;-62
2021/10/02 09:53:08;;;;;;;6.85;2.88;;;16.00;82.50;;;;;;5001032;28;20041;-62
2021/10/02 09:55:36;;;;;;;6.32;2.75;;;15.90;83.10;;;;;;5010132;28;20030;-63
2021/10/02 09:58:28;;;;;;;7.50;3.15;;;16.10;82.70;;;;;;5004991;28;20036;-63
2021/10/02 10:00:55;;;;;;;8.02;2.75;;;16.60;80.90;;;;;;4993280;28;20084;-63
2021/10/02 10:03:22;;;;;;;6.63;2.85;;;16.60;81.20;;;;;;5011623;28;20151;-64
2021/10/02 10:05:54;;;;;;;5.50;2.70;;;16.60;81.90;;;;;;4999068;28;20049;-63
2021/10/02 10:08:28;;;;;;;7.13;2.97;;;16.40;81.60;;;;;;4998792;28;20116;-64
2021/10/02 10:11:09;;;;;;;6.40;2.60;;;16.20;81.20;;;;;;4999607;28;20033;-63
2021/10/02 10:13:35;;;;;;;8.38;2.70;;;16.10;82.20;;;;;;5003801;28;20036;-62
2021/10/02 10:16:05;;;;;;;7.22;2.75;;;15.90;82.40;;;;;;5008090;28;20038;-62
2021/10/02 10:18:38;;;;;;;6.97;2.78;;;15.80;82.80;;;;;;5000086;28;20033;-64
2021/10/02 10:21:13;;;;;;;6.50;3.10;;;15.60;83.10;;;;;;4996651;28;20125;-63
2021/10/02 10:23:45;;;;;;;7.93;2.58;;;15.90;83.30;;;;;;4997502;28;20503;-61
2021/10/02 10:26:19;;;;;;;6.18;2.70;;;16.10;82.90;;;;;;5003885;28;20022;-63
2021/10/02 10:28:48;;;;;;;4.47;2.45;;;16.40;81.20;;;;;;5005956;28;20033;-63
2021/10/02 10:31:16;;;;;;;3.65;2.47;;;16.30;82.40;;;;;;5000599;28;20026;-63
2021/10/02 10:33:52;;;;;;;7.97;3.13;;;16.10;82.90;;;;;;5002348;28;20037;-63
2021/10/02 10:36:20;;;;;;;7.97;2.97;;;16.10;82.80;;;;;;4998853;28;20025;-63
2021/10/02 10:38:46;;;;;;;6.53;2.95;;;16.10;81.90;;;;;;5012770;28;20096;-64
2021/10/02 10:41:13;;;;;;;5.55;3.30;;;16.40;82.10;;;;;;5006771;28;20029;-63
2021/10/02 10:43:39;;;;;;;8.57;3.65;;;16.30;81.80;;;;;;5000738;28;20304;-64
2021/10/02 10:46:08;;;;;;;7.80;3.42;;;16.40;81.80;;;;;;4997381;28;20264;-62
2021/10/02 10:48:35;;;;;;;5.90;3.15;;;16.40;80.70;;;;;;5005370;28;20022;-62
2021/10/02 10:51:06;;;;;;;8.27;3.40;;;16.40;81.00;;;;;;4998926;28;20091;-63
2021/10/02 10:53:47;;;;;;;9.30;3.63;;;16.40;81.00;;;;;;5002071;28;20050;-62
2021/10/02 10:56:16;;;;;;;5.03;2.97;;;16.30;81.70;;;;;;5005351;28;20026;-64
2021/10/02 10:58:42;;;;;;;9.05;4.00;;;16.50;80.60;;;;;;5001717;28;20242;-64
2021/10/02 11:01:10;;;;;;;10.10;4.10;;;16.60;80.10;;;;;;5003467;28;20048;-62
2021/10/02 11:03:47;;;;;;;7.22;4.15;;;16.60;79.30;;;;;;5006781;28;20046;-64
2021/10/02 11:06:15;;;;;;;7.55;4.35;;;16.60;80.20;;;;;;4998211;28;20018;-63
2021/10/02 11:09:04;;;;;;;10.55;4.72;;;16.50;79.20;;;;;;4995311;28;20025;-63
2021/10/02 11:11:51;;;;;;;7.82;4.05;;;16.40;80.00;;;;;;5007697;28;20036;-63
2021/10/02 11:14:19;;;;;;;9.27;4.57;;;16.60;79.80;;;;;;4995671;28;20019;-61
2021/10/02 11:16:47;;;;;;;6.80;3.80;;;16.60;79.30;;;;;;5002350;28;20022;-62
2021/10/02 11:19:38;;;;;;;7.57;3.95;;;16.70;79.90;;;;;;5002608;28;20044;-62
2021/10/02 11:22:52;;;;;;;8.73;3.95;;;16.70;80.00;;;;;;4999036;28;20084;-63
2021/10/02 11:25:23;;;;;;;7.82;4.05;;;16.70;80.10;;;;;;5000152;28;20036;-63
2021/10/02 11:27:49;;;;;;;5.87;3.90;;;16.60;80.20;;;;;;4995109;28;20380;-62
2021/10/02 11:30:17;;;;;;;7.25;4.05;;;16.50;81.00;;;;;;5003982;28;20029;-64
2021/10/02 11:32:43;;;;;;;7.28;4.00;;;16.40;81.30;;;;;;4995677;28;20045;-64
2021/10/02 11:35:09;;;;;;;6.70;3.88;;;16.30;81.60;;;;;;5003930;28;20030;-64
2021/10/02 11:37:42;;;;;;;8.85;4.80;;;16.60;82.00;;;;;;4992329;28;20151;-62
2021/10/02 11:40:35;;;;;;;11.70;5.80;;;16.70;81.10;;;;;;4999161;28;20412;-64
2021/10/02 11:43:13;;;;;;;19.08;13.88;;;16.80;81.10;;;;;;4996903;28;20038;-61
2021/10/02 11:46:01;;;;;;;9.45;6.22;;;17.00;81.00;;;;;;4998976;28;20026;-64
2021/10/02 11:48:34;;;;;;;9.10;4.70;;;17.00;80.40;;;;;;4998671;28;20134;-64
2021/10/02 11:51:14;;;;;;;8.10;4.18;;;17.00;80.20;;;;;;5006884;28;20121;-62
2021/10/02 11:53:48;;;;;;;8.07;4.80;;;16.70;80.00;;;;;;4996479;28;20457;-63
2021/10/02 11:56:21;;;;;;;9.57;5.47;;;16.80;80.90;;;;;;4996181;28;20374;-61
2021/10/02 11:58:49;;;;;;;7.28;4.28;;;16.90;81.60;;;;;;4999509;28;20523;-63
2021/10/02 12:01:26;;;;;;;8.65;3.92;;;17.30;79.50;;;;;;5000437;28;20586;-63
2021/10/02 12:04:01;;;;;;;6.57;3.97;;;18.00;78.40;;;;;;5000221;28;20535;-64
2021/10/02 12:06:28;;;;;;;5.80;3.53;;;18.40;76.70;;;;;;4998662;28;20041;-64
2021/10/02 12:08:53;;;;;;;5.43;2.70;;;17.60;77.30;;;;;;4990908;28;20053;-64
2021/10/02 12:11:20;;;;;;;9.77;5.97;;;17.70;77.60;;;;;;4997542;28;20477;-61
2021/10/02 12:13:54;;;;;;;6.95;3.30;;;18.00;76.40;;;;;;4991463;28;20128;-63
2021/10/02 12:16:26;;;;;;;4.50;3.42;;;17.80;76.30;;;;;;4998262;28;20022;-64
2021/10/02 12:18:59;;;;;;;6.55;4.43;;;18.40;74.20;;;;;;4987705;28;20120;-64
2021/10/02 12:21:32;;;;;;;10.10;3.53;;;18.90;73.50;;;;;;5000613;28;20052;-64
2021/10/02 12:24:16;;;;;;;5.20;3.15;;;19.00;72.30;;;;;;4998105;28;20036;-62
2021/10/02 12:26:50;;;;;;;5.68;3.00;;;18.90;73.90;;;;;;4996850;28;20030;-62
2021/10/02 12:29:19;;;;;;;6.97;3.22;;;19.30;71.00;;;;;;4999422;28;20432;-63
2021/10/02 12:32:04;;;;;;;3.45;2.17;;;18.80;72.20;;;;;;5002156;28;20122;-63
2021/10/02 12:34:38;;;;;;;4.97;2.80;;;18.60;73.10;;;;;;4996499;28;20045;-64
2021/10/02 12:37:12;;;;;;;5.00;2.55;;;18.20;74.20;;;;;;4996219;28;20032;-63
2021/10/02 12:39:47;;;;;;;5.18;2.40;;;18.00;74.70;;;;;;5007555;28;20030;-63
2021/10/02 12:42:15;;;;;;;4.53;2.33;;;17.50;75.70;;;;;;5002753;28;20125;-61
2021/10/02 12:44:47;;;;;;;4.75;2.53;;;17.50;76.80;;;;;;5007181;28;20104;-61
2021/10/02 12:47:13;;;;;;;7.53;2.67;;;17.10;76.60;;;;;;5009451;28;20026;-64
2021/10/02 12:49:47;;;;;;;5.95;2.42;;;17.30;77.20;;;;;;5004250;28;20029;-63
2021/10/02 12:52:16;;;;;;;4.38;2.08;;;17.40;76.90;;;;;;5005448;28;20013;-63
2021/10/02 12:54:47;;;;;;;4.82;2.15;;;17.10;77.80;;;;;;5006864;28;20044;-63
2021/10/02 12:57:17;;;;;;;4.25;2.15;;;17.60;76.60;;;;;;5001280;28;20033;-64
2021/10/02 12:59:49;;;;;;;3.58;1.60;;;17.80;76.90;;;;;;5001085;28;20453;-63
2021/10/02 13:02:18;;;;;;;5.57;1.27;;;18.00;76.00;;;;;;5003369;28;20034;-62
2021/10/02 13:04:44;;;;;;;3.60;1.80;;;18.00;75.10;;;;;;5013425;28;20030;-63
2021/10/02 13:07:09;;;;;;;3.85;1.95;;;17.80;76.10;;;;;;5008011;28;22038;-64
2021/10/02 13:10:14;;;;;;;2.97;1.90;;;17.80;76.60;;;;;;5006090;28;20553;-63
2021/10/02 13:12:41;;;;;;;4.15;1.58;;;17.60;75.30;;;;;;4952928;28;20036;-63
2021/10/02 13:15:25;;;;;;;5.15;1.50;;;17.80;75.40;;;;;;4943651;28;20067;-61
2021/10/02 13:18:04;;;;;;;3.42;1.75;;;17.50;74.80;;;;;;4982532;28;20145;-62
2021/10/02 13:20:31;;;;;;;3.35;1.50;;;17.90;74.30;;;;;;5002202;28;20052;-62
2021/10/02 13:23:04;;;;;;;4.78;2.55;;;17.70;74.90;;;;;;5000250;28;20124;-64
2021/10/02 13:25:30;;;;;;;2.63;2.30;;;18.10;74.90;;;;;;5001231;28;20299;-66
2021/10/02 13:27:58;;;;;;;4.43;2.20;;;18.30;73.30;;;;;;5005716;28;20030;-64
2021/10/02 13:30:27;;;;;;;3.88;2.65;;;18.10;73.90;;;;;;5008190;28;20045;-66
2021/10/02 13:33:03;;;;;;;4.22;1.75;;;18.40;73.90;;;;;;5006342;28;20038;-64
2021/10/02 13:35:36;;;;;;;3.33;1.60;;;17.90;74.20;;;;;;5004594;28;20973;-65
2021/10/02 13:38:03;;;;;;;7.53;1.75;;;17.80;75.90;;;;;;5005953;28;20447;-66
2021/10/02 13:40:33;;;;;;;3.28;2.15;;;18.50;74.00;;;;;;5009104;28;20607;-66
2021/10/02 13:43:02;;;;;;;5.65;3.60;;;18.50;74.00;;;;;;5007251;28;20038;-66
2021/10/02 13:45:32;;;;;;;4.88;2.70;;;19.20;72.30;;;;;;5007578;28;20034;-64
2021/10/02 13:48:03;;;;;;;2.85;1.80;;;19.40;71.10;;;;;;5002057;28;20022;-65
2021/10/02 13:50:28;;;;;;;3.25;1.77;;;19.00;71.60;;;;;;5006545;28;20030;-65